Time;durP1;ratioP1;P1;durP2;ratioP2;P2;SDS_P1;SDS_P2;PMS_P1;PMS_P2;Temp;Humidity;BMP_temperature;BMP_pressure;BME280_temperature;BME280_humidity;BME280_pressure;Samples;Min_cycle;Max_cycle;Signal;HPM_P1;HPM_P2
2022/09/11 00:04:13;;;;;;;19.03;13.43;;;;;;;16.21;100.00;100328.09;5143773;56;1145710;-69
2022/09/11 00:09:19;;;;;;;19.07;10.87;;;;;;;16.24;100.00;100329.13;5094789;56;1145505;-71
2022/09/11 00:14:27;;;;;;;14.40;10.70;;;;;;;16.19;100.00;100322.12;5127869;56;1145306;-68
2022/09/11 00:19:34;;;;;;;15.87;11.47;;;;;;;16.19;100.00;100322.12;5242080;56;1145547;-68
2022/09/11 00:24:41;;;;;;;15.37;12.23;;;;;;;16.17;100.00;100329.44;5242009;56;1145251;-73
2022/09/11 00:29:48;;;;;;;29.20;17.97;;;;;;;16.03;100.00;100324.70;5241876;56;1144643;-65
2022/09/11 00:34:54;;;;;;;34.90;20.63;;;;;;;15.94;100.00;100326.47;5179167;56;1145268;-67
2022/09/11 00:40:00;;;;;;;61.67;35.47;;;;;;;15.85;100.00;100323.92;5155422;57;1145276;-69
2022/09/11 00:45:10;;;;;;;203.23;96.80;;;;;;;15.87;100.00;100327.27;5122275;57;1145326;-67
2022/09/11 00:50:20;;;;;;;51.70;27.63;;;;;;;15.91;100.00;100328.61;5113786;57;1147329;-68
2022/09/11 00:55:30;;;;;;;23.23;15.70;;;;;;;16.03;100.00;100322.03;5048579;57;1145535;-72
2022/09/11 01:00:39;;;;;;;14.43;12.57;;;;;;;16.03;100.00;100316.20;5085865;57;1145251;-65
2022/09/11 01:05:45;;;;;;;23.80;15.13;;;;;;;15.95;100.00;100309.47;5142178;57;1143296;-69
2022/09/11 01:11:13;;;;;;;18.53;12.83;;;;;;;15.85;100.00;100307.92;5141988;57;1143149;-69
2022/09/11 01:16:42;;;;;;;23.50;15.43;;;;;;;15.75;100.00;100304.84;4872751;59;1143252;-68
2022/09/11 01:22:09;;;;;;;23.47;15.57;;;;;;;15.71;100.00;100304.84;4938993;59;1143348;-71
2022/09/11 01:27:42;;;;;;;19.57;15.23;;;;;;;15.70;100.00;100305.84;4783003;61;1143439;-70
2022/09/11 01:33:05;;;;;;;18.30;14.70;;;;;;;15.63;100.00;100302.11;4795633;60;1145250;-68
2022/09/11 01:38:37;;;;;;;24.33;15.73;;;;;;;15.63;100.00;100302.11;4734524;61;1145526;-69
2022/09/11 01:44:03;;;;;;;21.63;14.27;;;;;;;15.63;100.00;100290.61;4735882;60;1145554;-69
2022/09/11 01:49:35;;;;;;;24.03;14.80;;;;;;;15.63;100.00;100301.27;4734224;60;1145294;-71
2022/09/11 01:54:45;;;;;;;16.87;13.10;;;;;;;15.61;100.00;100296.09;4900343;60;1145285;-67
2022/09/11 01:59:56;;;;;;;19.07;13.17;;;;;;;15.65;100.00;100283.30;5027640;59;1145380;-66
2022/09/11 02:05:24;;;;;;;18.57;14.63;;;;;;;15.64;100.00;100279.80;5016088;59;1145342;-66
2022/09/11 02:10:38;;;;;;;16.47;12.50;;;;;;;15.56;100.00;100283.75;5027303;58;1145503;-68
2022/09/11 02:15:48;;;;;;;14.10;11.48;;;;;;;15.49;100.00;100282.66;5041612;58;1145488;-70
2022/09/11 02:20:56;;;;;;;15.13;12.60;;;;;;;15.48;100.00;100282.32;5082725;58;1145522;-71
2022/09/11 02:26:02;;;;;;;13.87;11.93;;;;;;;15.46;100.00;100276.30;5054175;58;1143481;-70
2022/09/11 02:31:08;;;;;;;15.23;12.13;;;;;;;15.47;100.00;100273.98;5019992;59;1143818;-67
2022/09/11 02:36:57;;;;;;;21.37;12.20;;;;;;;15.49;100.00;100277.33;5007591;58;1143241;-70
2022/09/11 02:42:34;;;;;;;23.23;13.03;;;;;;;15.49;100.00;100272.84;5054602;57;1143221;-69
2022/09/11 02:48:10;;;;;;;13.10;10.53;;;;;;;15.64;100.00;100266.96;4994101;57;1141470;-68
2022/09/11 02:53:35;;;;;;;15.13;10.80;;;;;;;15.81;100.00;100265.56;5030354;57;1145266;-71
2022/09/11 02:58:46;;;;;;;13.57;11.17;;;;;;;15.78;100.00;100260.55;5230957;56;1145301;-70
2022/09/11 03:03:53;;;;;;;14.10;9.83;;;;;;;15.74;100.00;100259.67;5236163;56;1145286;-71
2022/09/11 03:08:59;;;;;;;16.33;10.27;;;;;;;15.71;100.00;100262.19;5236885;56;1143242;-70
2022/09/11 03:14:05;;;;;;;16.30;10.87;;;;;;;15.67;100.00;100266.65;5256493;55;1145282;-68
2022/09/11 03:19:11;;;;;;;14.40;10.40;;;;;;;15.62;100.00;100263.61;5316664;55;1145571;-70
2022/09/11 03:24:17;;;;;;;15.00;10.47;;;;;;;15.67;100.00;100262.66;5284120;55;1145230;-70
2022/09/11 03:29:23;;;;;;;14.10;9.67;;;;;;;15.70;100.00;100270.34;5316641;55;1145229;-65
2022/09/11 03:34:30;;;;;;;16.13;10.40;;;;;;;15.72;100.00;100265.20;5314982;55;1143201;-68
2022/09/11 03:39:37;;;;;;;18.00;10.57;;;;;;;15.61;100.00;100268.11;5316523;55;1145382;-70
2022/09/11 03:44:44;;;;;;;15.13;11.30;;;;;;;15.51;100.00;100269.18;5306225;55;1145288;-66
2022/09/11 03:49:51;;;;;;;20.13;12.23;;;;;;;15.42;100.00;100272.30;5227519;56;1145401;-64
2022/09/11 03:54:57;;;;;;;15.37;12.53;;;;;;;15.32;100.00;100267.05;5315933;55;1145685;-64
2022/09/11 04:00:05;;;;;;;14.60;11.33;;;;;;;15.28;100.00;100274.17;5316515;55;1145360;-67
2022/09/11 04:05:13;;;;;;;13.47;10.70;;;;;;;15.24;100.00;100275.00;5282859;55;1145422;-67
2022/09/11 04:10:19;;;;;;;14.40;10.57;;;;;;;15.21;100.00;100272.64;5316413;55;1145288;-68
2022/09/11 04:15:26;;;;;;;16.10;10.70;;;;;;;15.23;100.00;100269.33;5319406;55;1145396;-69
2022/09/11 04:20:32;;;;;;;17.17;11.93;;;;;;;15.23;100.00;100268.48;5279011;55;1145383;-67
2022/09/11 04:25:38;;;;;;;15.30;11.70;;;;;;;15.20;100.00;100278.95;5279610;55;1145562;-67
2022/09/11 04:30:45;;;;;;;15.93;10.77;;;;;;;15.22;100.00;100270.31;5329557;55;1145398;-71
2022/09/11 04:35:51;;;;;;;17.13;10.63;;;;;;;15.18;100.00;100263.61;5186261;55;1145224;-67
2022/09/11 04:41:01;;;;;;;13.67;9.77;;;;;;;15.18;100.00;100262.28;5179483;56;1145389;-64
2022/09/11 04:46:18;;;;;;;13.37;11.17;;;;;;;15.18;100.00;100269.44;5218348;56;1143160;-67
2022/09/11 04:51:29;;;;;;;13.03;8.87;;;;;;;15.28;100.00;100271.01;5243384;55;1145585;-69
2022/09/11 04:56:37;;;;;;;18.53;11.07;;;;;;;15.31;100.00;100262.71;5252702;55;1141423;-70
2022/09/11 05:01:45;;;;;;;10.63;8.17;;;;;;;15.29;100.00;100263.36;5202001;56;1143241;-70
2022/09/11 05:06:54;;;;;;;14.33;10.10;;;;;;;15.28;100.00;100261.69;5204622;56;1141221;-69
2022/09/11 05:12:01;;;;;;;11.07;9.30;;;;;;;15.30;100.00;100256.20;5213788;56;1143211;-69
2022/09/11 05:17:12;;;;;;;11.50;8.10;;;;;;;15.27;100.00;100244.55;5184491;56;1141402;-67
2022/09/11 05:22:18;;;;;;;10.87;8.73;;;;;;;15.22;100.00;100249.50;5179472;56;1141255;-72
2022/09/11 05:27:26;;;;;;;8.23;7.27;;;;;;;15.18;100.00;100258.29;5222847;56;1140941;-65
2022/09/11 05:32:32;;;;;;;8.10;7.23;;;;;;;15.13;100.00;100259.23;5182006;56;1139277;-64
2022/09/11 05:37:40;;;;;;;7.85;5.67;;;;;;;15.09;100.00;100261.40;5206366;56;1138987;-70
2022/09/11 05:47:59;;;;;;;10.60;7.43;;;;;;;15.17;100.00;100269.93;5215054;55;46129;-67
2022/09/11 05:53:06;;;;;;;8.07;7.27;;;;;;;15.11;100.00;100278.56;5079975;57;1136987;-66
2022/09/11 05:58:14;;;;;;;10.17;7.40;;;;;;;15.10;100.00;100278.22;5047581;58;1139177;-68
2022/09/11 06:03:19;;;;;;;9.93;7.70;;;;;;;15.16;100.00;100291.39;5048041;58;1138978;-70
2022/09/11 06:08:25;;;;;;;7.30;6.60;;;;;;;15.22;100.00;100296.12;5067505;58;21123;-65
2022/09/11 06:13:34;;;;;;;12.13;9.10;;;;;;;15.21;100.00;100300.61;5048307;58;1136963;-71
2022/09/11 06:18:40;;;;;;;15.43;7.60;;;;;;;15.25;100.00;100304.65;5048305;58;1143189;-64
2022/09/11 06:23:50;;;;;;;9.60;6.42;;;;;;;15.33;100.00;100301.20;5105444;57;1143765;-67
2022/09/11 06:28:58;;;;;;;8.53;6.77;;;;;;;15.35;100.00;100310.72;5044903;58;1141082;-65
2022/09/11 06:34:05;;;;;;;15.83;11.93;;;;;;;15.39;100.00;100304.59;5053479;57;1141178;-68
2022/09/11 06:39:11;;;;;;;11.17;8.20;;;;;;;15.43;100.00;100305.43;5131984;57;1145250;-72
2022/09/11 06:44:17;;;;;;;9.37;6.80;;;;;;;15.49;100.00;100312.82;5131468;57;1143256;-69
2022/09/11 06:49:23;;;;;;;8.07;6.77;;;;;;;15.63;100.00;100322.61;5061099;57;1141075;-67
2022/09/11 06:54:46;;;;;;;7.53;6.77;;;;;;;15.78;100.00;100323.70;5059853;57;1141099;-68
2022/09/11 06:59:53;;;;;;;8.33;5.47;;;;;;;15.82;100.00;100336.58;5054483;58;1141379;-68
2022/09/11 07:05:00;;;;;;;8.77;7.00;;;;;;;15.91;100.00;100332.61;5054524;57;1141125;-72
2022/09/11 07:10:09;;;;;;;9.27;7.50;;;;;;;15.98;100.00;100330.50;5054619;58;1141312;-71
2022/09/11 07:15:16;;;;;;;8.57;7.00;;;;;;;15.95;100.00;100331.31;5054425;57;1141046;-70
2022/09/11 07:20:22;;;;;;;11.80;7.63;;;;;;;16.02;100.00;100342.53;5044008;58;1141234;-72
2022/09/11 07:25:29;;;;;;;9.30;7.67;;;;;;;16.10;100.00;100337.23;5039359;58;1143251;-68
2022/09/11 07:30:34;;;;;;;9.97;6.87;;;;;;;16.10;100.00;100340.39;5041128;58;1141119;-69
2022/09/11 07:35:40;;;;;;;8.37;7.50;;;;;;;16.16;100.00;100339.27;4981601;58;1141262;-74
2022/09/11 07:40:46;;;;;;;10.70;7.50;;;;;;;16.12;100.00;100334.41;5015024;58;1141107;-72
2022/09/11 07:45:55;;;;;;;9.30;6.83;;;;;;;16.10;100.00;100340.39;5048206;58;1143205;-71
2022/09/11 07:51:06;;;;;;;12.60;7.47;;;;;;;16.13;100.00;100347.59;5040628;58;1141321;-70
2022/09/11 07:56:17;;;;;;;10.13;5.80;;;;;;;16.11;100.00;100346.91;5054123;58;1143355;-70
2022/09/11 08:01:28;;;;;;;8.60;6.97;;;;;;;16.19;100.00;100355.47;5019324;59;1143194;-69
2022/09/11 08:06:36;;;;;;;10.23;7.80;;;;;;;16.18;100.00;100357.80;4917922;60;1141152;-70
2022/09/11 08:11:47;;;;;;;10.23;6.90;;;;;;;16.07;100.00;100366.89;4856222;61;1143224;-70
2022/09/11 08:16:55;;;;;;;9.10;7.10;;;;;;;16.11;100.00;100366.92;5046740;57;1143302;-75
2022/09/11 08:22:04;;;;;;;13.43;6.40;;;;;;;16.11;100.00;100374.09;5073926;57;1141332;-72
2022/09/11 08:27:12;;;;;;;9.87;5.10;;;;;;;16.13;100.00;100385.44;5045872;57;1143249;-66
2022/09/11 08:32:19;;;;;;;6.27;4.77;;;;;;;16.14;100.00;100390.63;5077174;57;1139043;-74
2022/09/11 08:37:25;;;;;;;6.07;4.37;;;;;;;16.13;100.00;100392.95;5091792;56;1139314;-67
2022/09/11 08:42:36;;;;;;;5.43;4.07;;;;;;;16.16;100.00;100390.47;5071260;56;1138866;-72
2022/09/11 08:47:54;;;;;;;10.13;5.00;;;;;;;16.26;100.00;100400.52;5099494;57;1139087;-72
2022/09/11 08:53:02;;;;;;;7.10;4.27;;;;;;;16.41;100.00;100398.09;5161107;57;1141370;-68
2022/09/11 08:58:43;;;;;;;8.17;4.03;;;;;;;16.55;100.00;100397.48;5139314;57;1139053;-74
2022/09/11 09:04:34;;;;;;;5.20;4.60;;;;;;;16.66;100.00;100402.56;5125321;57;1139050;-65
2022/09/11 09:10:06;;;;;;;8.33;5.50;;;;;;;16.69;100.00;100402.25;5142116;56;1141221;-69
2022/09/11 09:16:10;;;;;;;5.60;5.10;;;;;;;16.68;100.00;100406.41;5120596;56;1141052;-72
2022/09/11 09:21:33;;;;;;;9.07;6.40;;;;;;;16.61;100.00;100410.22;5208342;56;1141134;-74
2022/09/11 09:26:42;;;;;;;7.27;6.17;;;;;;;16.36;100.00;100417.74;5194051;56;1141159;-73
2022/09/11 09:31:51;;;;;;;9.33;5.60;;;;;;;16.29;100.00;100422.06;5187091;57;1141133;-71
2022/09/11 09:37:06;;;;;;;6.17;5.57;;;;;;;16.26;100.00;100421.88;5128383;57;1141393;-70
2022/09/11 09:42:27;;;;;;;7.30;5.60;;;;;;;16.30;100.00;100421.06;5128276;57;1141136;-67
2022/09/11 09:47:34;;;;;;;5.83;4.40;;;;;;;16.38;100.00;100421.94;5156127;57;1139205;-69
2022/09/11 09:52:40;;;;;;;5.53;4.70;;;;;;;16.46;100.00;100417.16;5175513;56;1139154;-69
2022/09/11 09:57:47;;;;;;;10.00;4.63;;;;;;;16.51;100.00;100425.50;5186274;56;1139025;-68
2022/09/11 10:02:56;;;;;;;7.23;5.53;;;;;;;16.53;100.00;100424.34;5134705;56;1141215;-68
2022/09/11 10:08:05;;;;;;;4.80;4.40;;;;;;;16.54;100.00;100424.69;5129169;56;1139100;-72
2022/09/11 10:13:29;;;;;;;8.23;4.33;;;;;;;16.53;100.00;100426.18;5129033;57;1139270;-71
2022/09/11 10:18:46;;;;;;;7.33;5.07;;;;;;;16.57;100.00;100436.05;5126042;57;1139065;-70
2022/09/11 10:23:57;;;;;;;7.50;5.43;;;;;;;16.44;100.00;100439.16;5133560;56;1138365;-68
2022/09/11 10:29:28;;;;;;;5.53;4.85;;;;;;;16.45;100.00;100441.67;5129068;57;1138990;-70
2022/09/11 10:34:40;;;;;;;6.47;3.90;;;;;;;16.46;100.00;100444.69;5127911;56;1141453;-70
2022/09/11 10:39:48;;;;;;;5.50;4.40;;;;;;;16.54;100.00;100445.21;5128166;56;1141248;-71
2022/09/11 10:44:57;;;;;;;4.63;4.20;;;;;;;16.57;100.00;100446.73;5133768;56;1141027;-70
2022/09/11 10:50:23;;;;;;;6.53;4.23;;;;;;;16.57;100.00;100444.06;5139930;56;1141541;-69
2022/09/11 10:55:34;;;;;;;4.23;3.53;;;;;;;16.60;100.00;100447.75;5222594;56;1141077;-74
2022/09/11 11:00:40;;;;;;;9.03;3.87;;;;;;;16.61;100.00;100447.59;5222533;56;1141116;-71
2022/09/11 11:06:22;;;;;;;8.17;4.33;;;;;;;16.51;100.00;100446.36;5141530;56;1141104;-71
2022/09/11 11:12:05;;;;;;;5.23;4.67;;;;;;;16.47;100.00;100455.70;5139021;56;1141093;-70
2022/09/11 11:17:47;;;;;;;3.73;3.37;;;;;;;16.48;100.00;100452.54;5136804;56;1141115;-71
2022/09/11 11:23:28;;;;;;;5.60;4.00;;;;;;;16.54;100.00;100458.56;5137825;56;1139176;-70
2022/09/11 11:28:41;;;;;;;5.87;4.03;;;;;;;16.61;100.00;100458.77;5156461;56;1139020;-67
2022/09/11 11:34:10;;;;;;;;;;;;;;;16.68;100.00;100457.99;5149615;56;1139203;-66
2022/09/11 11:39:35;;;;;;;3.77;3.30;;;;;;;16.79;100.00;100454.23;5145650;56;976293;-68
2022/09/11 11:44:53;;;;;;;3.80;3.23;;;;;;;16.88;100.00;100466.60;5151005;56;1138966;-71
2022/09/11 11:50:12;;;;;;;3.90;3.60;;;;;;;16.99;100.00;100465.47;5157283;56;1141327;-70
2022/09/11 11:55:27;;;;;;;4.07;3.33;;;;;;;17.08;100.00;100464.52;5143884;56;1141272;-69
2022/09/11 12:00:39;;;;;;;3.25;3.05;;;;;;;17.16;100.00;100464.03;5111739;56;1141642;-68
2022/09/11 12:05:45;;;;;;;4.03;3.60;;;;;;;17.25;100.00;100471.59;5151439;56;1141037;-71
2022/09/11 12:11:00;;;;;;;4.47;3.80;;;;;;;17.21;100.00;100468.39;5151525;56;1141079;-68
2022/09/11 12:16:10;;;;;;;6.53;3.27;;;;;;;17.28;100.00;100475.74;5068299;57;1141065;-71
2022/09/11 12:21:30;;;;;;;6.67;4.53;;;;;;;17.36;100.00;100477.95;5149288;56;1141055;-68
2022/09/11 12:26:36;;;;;;;4.62;3.72;;;;;;;17.34;100.00;100475.10;5169624;56;1141178;-70
2022/09/11 12:32:02;;;;;;;5.63;3.33;;;;;;;17.40;100.00;100473.12;5142949;56;1141685;-71
2022/09/11 12:37:21;;;;;;;5.42;3.52;;;;;;;17.47;100.00;100475.45;5148813;56;1141233;-69
2022/09/11 12:42:34;;;;;;;4.47;3.70;;;;;;;17.58;100.00;100474.63;5148537;56;1141440;-69
2022/09/11 12:47:40;;;;;;;;;;;;;;;17.70;100.00;100474.37;5150544;56;1141115;-70
2022/09/11 12:52:57;;;;;;;4.28;3.40;;;;;;;17.78;100.00;100476.53;5198095;56;978668;-69
2022/09/11 12:58:22;;;;;;;4.10;3.70;;;;;;;17.86;99.17;100476.55;5139638;56;1139043;-68
2022/09/11 13:03:30;;;;;;;8.88;3.12;;;;;;;17.85;100.00;100484.23;5117075;56;1137237;-68
2022/09/11 13:08:40;;;;;;;3.72;3.27;;;;;;;17.85;99.28;100485.58;5156839;57;1139038;-70
2022/09/11 13:13:46;;;;;;;7.47;3.12;;;;;;;17.81;99.28;100490.08;5169596;56;1137272;-72
2022/09/11 13:19:06;;;;;;;3.83;3.30;;;;;;;17.75;98.33;100480.03;5214031;56;1137336;-70
2022/09/11 13:24:34;;;;;;;4.33;3.83;;;;;;;17.73;98.86;100488.72;5184081;56;1136898;-71
2022/09/11 13:29:42;;;;;;;4.04;3.66;;;;;;;17.73;98.81;100490.06;5213690;56;1136937;-70
2022/09/11 13:35:03;;;;;;;4.12;3.70;;;;;;;17.58;96.93;100485.83;5152998;56;1135093;-73
2022/09/11 13:40:07;;;;;;;7.00;3.80;;;;;;;17.50;98.15;100483.16;5128137;57;1139000;-69
2022/09/11 13:45:17;;;;;;;5.78;3.83;;;;;;;17.51;99.04;100484.33;5073400;56;1139241;-71
2022/09/11 13:50:24;;;;;;;6.17;4.37;;;;;;;17.58;99.05;100480.48;5213579;56;1139314;-67
2022/09/11 13:55:29;;;;;;;3.75;3.45;;;;;;;17.59;99.10;100478.14;5213876;56;1139198;-68
2022/09/11 14:00:46;;;;;;;3.35;3.05;;;;;;;17.56;99.00;100483.34;5213824;56;1139222;-71
2022/09/11 14:05:56;;;;;;;4.90;3.30;;;;;;;17.48;98.69;100481.98;5214052;56;1139146;-69
2022/09/11 14:11:27;;;;;;;8.00;3.00;;;;;;;17.47;99.68;100493.67;5214467;56;1139307;-69
2022/09/11 14:16:50;;;;;;;4.17;2.58;;;;;;;17.47;99.31;100485.66;5214520;56;1139345;-71
2022/09/11 14:21:56;;;;;;;4.37;3.05;;;;;;;17.43;99.46;100489.64;5214503;56;1139290;-71
2022/09/11 14:27:06;;;;;;;6.45;3.15;;;;;;;17.39;99.34;100495.01;5214478;56;1138992;-69
2022/09/11 14:32:32;;;;;;;3.95;3.50;;;;;;;17.41;98.97;100501.03;5191496;56;1139516;-71
2022/09/11 14:37:49;;;;;;;3.50;2.87;;;;;;;17.42;98.72;100493.82;5119546;57;1139012;-69
2022/09/11 14:42:54;;;;;;;4.97;3.15;;;;;;;17.47;99.03;100498.19;5075063;58;1139074;-69
2022/09/11 14:48:01;;;;;;;3.33;3.08;;;;;;;17.50;99.51;100497.36;5080863;56;1139120;-71
2022/09/11 14:53:08;;;;;;;2.83;2.62;;;;;;;17.44;98.91;100495.83;5144092;56;1139407;-67
2022/09/11 14:58:15;;;;;;;3.52;2.98;;;;;;;17.44;98.91;100495.83;5142628;56;1139299;-71
2022/09/11 15:03:21;;;;;;;8.80;2.95;;;;;;;17.43;98.85;100497.67;5138992;56;1139355;-70
2022/09/11 15:08:27;;;;;;;3.10;2.90;;;;;;;17.41;98.22;100502.38;5186095;56;1138994;-69
2022/09/11 15:13:32;;;;;;;2.47;2.12;;;;;;;17.42;97.82;100508.52;5116784;57;1139043;-70
2022/09/11 15:18:40;;;;;;;2.60;2.05;;;;;;;17.38;97.56;100495.17;5064080;57;1136956;-65
2022/09/11 15:23:48;;;;;;;4.08;2.35;;;;;;;17.43;96.18;100500.34;5104848;57;1137290;-66
2022/09/11 15:28:54;;;;;;;7.10;3.20;;;;;;;17.48;94.06;100501.20;5091895;57;1136970;-67
2022/09/11 15:34:04;;;;;;;3.47;2.42;;;;;;;17.57;94.93;100500.20;5126740;56;1137190;-70
2022/09/11 15:39:13;;;;;;;2.98;2.02;;;;;;;17.79;94.71;100502.78;5086553;56;1137009;-67
2022/09/11 15:44:22;;;;;;;6.12;2.72;;;;;;;17.85;91.64;100503.47;5058280;57;1137062;-68
2022/09/11 15:49:28;;;;;;;3.45;2.42;;;;;;;17.93;91.88;100502.13;5174199;56;1137054;-65
2022/09/11 15:54:35;;;;;;;5.75;2.77;;;;;;;17.97;89.26;100510.16;5205535;56;1136940;-69
2022/09/11 15:59:41;;;;;;;2.87;1.77;;;;;;;17.97;90.16;100512.00;5179157;56;1136851;-67
2022/09/11 16:04:50;;;;;;;4.47;2.12;;;;;;;18.03;89.28;100520.67;5206679;56;1136945;-67
2022/09/11 16:09:55;;;;;;;2.90;2.70;;;;;;;18.04;90.41;100523.19;5209526;56;1137017;-69
2022/09/11 16:15:01;;;;;;;4.70;3.75;;;;;;;18.06;90.29;100522.52;5209504;56;1136186;-67
2022/09/11 16:20:14;;;;;;;4.10;3.70;;;;;;;18.05;90.85;100521.35;5251690;56;1136945;-69
2022/09/11 16:25:26;;;;;;;4.33;3.72;;;;;;;18.00;91.06;100521.03;5218482;56;1134806;-69
2022/09/11 16:30:37;;;;;;;4.78;2.88;;;;;;;17.99;91.00;100522.03;5181325;56;1139123;-68
2022/09/11 16:35:49;;;;;;;5.83;2.73;;;;;;;17.91;90.80;100522.86;5189020;56;1138870;-67
2022/09/11 16:41:08;;;;;;;3.00;2.72;;;;;;;17.83;91.35;100513.50;5185705;56;1139001;-65
2022/09/11 16:46:17;;;;;;;6.75;3.10;;;;;;;17.80;91.56;100514.66;5191975;56;1139108;-69
2022/09/11 16:51:24;;;;;;;4.78;2.60;;;;;;;17.74;91.92;100523.83;5206090;56;1138971;-71
2022/09/11 16:56:29;;;;;;;8.05;4.30;;;;;;;17.58;91.45;100526.78;5167360;56;1139121;-66
2022/09/11 17:01:35;;;;;;;6.83;3.45;;;;;;;17.38;91.65;100524.08;5158660;56;1139123;-69
2022/09/11 17:06:41;;;;;;;14.50;4.27;;;;;;;17.21;92.14;100525.86;5187302;56;1139016;-65
2022/09/11 17:11:47;;;;;;;12.63;7.83;;;;;;;17.06;92.73;100523.46;5196878;56;1141109;-69
2022/09/11 17:16:54;;;;;;;13.40;8.95;;;;;;;16.98;92.99;100523.91;5190751;56;1140822;-68
2022/09/11 17:22:00;;;;;;;12.40;8.20;;;;;;;16.89;93.29;100525.72;5200514;56;1141200;-65
2022/09/11 17:27:06;;;;;;;14.03;8.50;;;;;;;16.78;93.51;100534.02;5180209;56;1141145;-64
2022/09/11 17:32:19;;;;;;;15.55;9.25;;;;;;;16.68;93.94;100540.78;5212332;56;1141121;-70
2022/09/11 17:37:19;;;;;;;12.37;7.40;;;;;;;16.69;94.20;100539.78;5141179;56;1141205;-70
2022/09/11 17:42:29;;;;;;;18.87;11.60;;;;;;;16.68;94.27;100536.77;5142774;57;1141199;-65
2022/09/11 17:47:35;;;;;;;51.87;24.47;;;;;;;16.65;94.56;100541.09;5201919;56;1143387;-68
2022/09/11 17:52:41;;;;;;;161.23;53.60;;;;;;;16.64;94.78;100544.78;5228695;56;1143195;-67
2022/09/11 17:57:54;;;;;;;340.30;112.63;;;;;;;16.61;95.00;100549.56;5154283;56;1145427;-69
2022/09/11 18:03:01;;;;;;;161.43;66.50;;;;;;;16.50;94.67;100555.48;5138527;57;1147683;-66
2022/09/11 18:08:07;;;;;;;148.03;54.97;;;;;;;16.46;95.25;100555.47;5116273;57;1145965;-67
2022/09/11 18:13:13;;;;;;;175.80;73.43;;;;;;;16.41;95.45;100556.92;5149109;57;1145661;-69
2022/09/11 18:18:18;;;;;;;166.30;79.47;;;;;;;16.37;95.24;100563.55;5135971;57;1145719;-66
2022/09/11 18:23:26;;;;;;;405.03;234.33;;;;;;;16.37;95.74;100565.73;5078633;58;1145238;-66
2022/09/11 18:28:32;;;;;;;131.50;67.90;;;;;;;16.37;95.64;100571.07;5159502;57;1147400;-66
2022/09/11 18:33:38;;;;;;;29.23;19.83;;;;;;;16.34;95.33;100573.23;5122595;57;1145218;-66
2022/09/11 18:38:44;;;;;;;93.13;55.87;;;;;;;16.34;95.10;100585.25;5078673;58;1143233;-65
2022/09/11 18:43:56;;;;;;;85.00;47.87;;;;;;;16.33;94.87;100583.57;5041317;58;1143200;-65
2022/09/11 18:49:02;;;;;;;273.30;123.97;;;;;;;16.18;94.95;100590.79;5246191;56;1143433;-75
2022/09/11 18:54:19;;;;;;;207.10;105.57;;;;;;;16.02;94.39;100594.64;5183597;56;1147363;-69
2022/09/11 18:59:26;;;;;;;152.20;97.13;;;;;;;15.86;94.96;100609.14;5189377;56;1145528;-65
2022/09/11 19:04:32;;;;;;;163.87;100.33;;;;;;;15.89;95.59;100612.02;5148234;56;1143373;-67
2022/09/11 19:09:39;;;;;;;397.27;177.40;;;;;;;15.80;95.36;100615.91;5188405;56;1145580;-64
2022/09/11 19:14:45;;;;;;;159.37;59.73;;;;;;;15.63;95.69;100624.70;5171330;56;1145211;-65
2022/09/11 19:19:52;;;;;;;83.73;30.10;;;;;;;15.51;96.04;100629.03;5163220;56;1143210;-64
2022/09/11 19:24:59;;;;;;;108.83;44.77;;;;;;;15.48;96.54;100632.83;5167383;56;1141229;-68
2022/09/11 19:30:07;;;;;;;126.50;52.17;;;;;;;15.37;96.70;100628.53;5150065;56;1143161;-64
2022/09/11 19:35:13;;;;;;;84.13;32.83;;;;;;;15.31;97.33;100641.09;5127467;57;1143126;-67
2022/09/11 19:40:19;;;;;;;51.37;19.77;;;;;;;15.26;97.52;100635.88;5149924;56;1141100;-68
2022/09/11 19:45:24;;;;;;;82.07;28.57;;;;;;;15.21;97.69;100643.46;5189012;56;1141217;-70
2022/09/11 19:50:34;;;;;;;120.77;40.53;;;;;;;15.17;98.05;100651.39;5236073;56;1141341;-72
2022/09/11 19:55:38;;;;;;;65.20;23.03;;;;;;;15.16;98.56;100648.38;5237872;56;1143166;-66
2022/09/11 20:00:43;;;;;;;147.67;51.90;;;;;;;15.09;98.36;100643.65;5247511;56;1141398;-69
2022/09/11 20:05:49;;;;;;;116.40;39.23;;;;;;;15.04;98.39;100649.05;5195178;56;1143172;-70
2022/09/11 20:10:55;;;;;;;230.37;71.40;;;;;;;15.01;98.68;100646.18;5160854;57;1143395;-67
2022/09/11 20:16:06;;;;;;;214.73;67.37;;;;;;;14.95;98.77;100657.92;5160943;56;1143516;-66
2022/09/11 20:21:15;;;;;;;234.90;75.10;;;;;;;14.92;99.13;100656.38;5210592;56;1141086;-64
2022/09/11 20:26:26;;;;;;;373.23;123.30;;;;;;;14.87;99.01;100657.78;5117959;57;1145388;-66
2022/09/11 20:31:35;;;;;;;418.70;145.53;;;;;;;14.76;99.36;100660.13;5166472;56;1147308;-69
2022/09/11 20:36:40;;;;;;;198.20;66.37;;;;;;;14.72;99.77;100662.70;5247263;56;1147529;-68
2022/09/11 20:41:46;;;;;;;201.90;69.43;;;;;;;14.67;99.72;100662.28;5180816;56;1145287;-70
2022/09/11 20:46:52;;;;;;;122.87;43.13;;;;;;;14.61;99.96;100670.36;5160336;56;1145291;-65
2022/09/11 20:51:58;;;;;;;297.83;101.73;;;;;;;14.55;100.00;100672.25;5187020;56;1145383;-69
2022/09/11 20:57:05;;;;;;;172.13;56.67;;;;;;;14.48;100.00;100671.63;5224742;56;1149503;-68
2022/09/11 21:02:13;;;;;;;118.03;33.43;;;;;;;14.45;100.00;100680.73;5213051;56;1147398;-64
2022/09/11 21:07:19;;;;;;;163.33;58.10;;;;;;;14.45;100.00;100677.23;5204785;56;1147584;-64
2022/09/11 21:12:25;;;;;;;98.87;39.13;;;;;;;14.44;100.00;100681.70;5216606;56;1147225;-67
2022/09/11 21:17:31;;;;;;;97.80;31.80;;;;;;;14.35;100.00;100679.87;5179178;56;1145368;-65
2022/09/11 21:22:36;;;;;;;71.33;25.00;;;;;;;14.25;100.00;100679.84;5194093;56;1145310;-65
2022/09/11 21:27:42;;;;;;;33.93;11.07;;;;;;;14.16;100.00;100687.33;5197433;56;1145287;-66
2022/09/11 21:32:47;;;;;;;61.00;23.77;;;;;;;14.16;100.00;100687.33;5195804;56;1145280;-70
2022/09/11 21:37:53;;;;;;;56.30;19.77;;;;;;;14.15;100.00;100694.95;5218379;56;1145254;-70
2022/09/11 21:42:59;;;;;;;76.13;28.00;;;;;;;14.06;100.00;100693.10;5185024;56;1145200;-65
2022/09/11 21:48:05;;;;;;;51.44;20.00;;;;;;;14.02;100.00;100693.89;5176199;56;1145354;-68
2022/09/11 21:53:11;;;;;;;55.87;22.53;;;;;;;13.98;100.00;100692.47;5228395;56;1145446;-65
2022/09/11 21:58:20;;;;;;;26.70;11.27;;;;;;;13.97;100.00;100695.27;5193040;56;1145122;-68
2022/09/11 22:03:25;;;;;;;47.03;19.60;;;;;;;14.01;100.00;100692.20;5204652;56;1145196;-64
2022/09/11 22:08:32;;;;;;;66.33;23.30;;;;;;;13.97;100.00;100696.59;5206314;56;1145228;-68
2022/09/11 22:13:38;;;;;;;21.80;9.97;;;;;;;14.05;100.00;100694.92;5214666;56;1145193;-69
2022/09/11 22:18:49;;;;;;;36.00;16.60;;;;;;;14.00;100.00;100698.50;5205045;56;1143339;-64
2022/09/11 22:23:56;;;;;;;27.27;12.40;;;;;;;13.97;100.00;100697.92;5223694;56;1145555;-67
2022/09/11 22:29:03;;;;;;;16.97;6.90;;;;;;;13.88;100.00;100692.95;5213196;56;1145261;-65
2022/09/11 22:34:08;;;;;;;12.47;6.07;;;;;;;13.80;100.00;100693.25;5190695;56;1143177;-67
2022/09/11 22:39:14;;;;;;;10.43;4.60;;;;;;;13.73;100.00;100695.63;5195132;56;1143357;-63
2022/09/11 22:44:20;;;;;;;5.80;3.50;;;;;;;13.75;100.00;100701.63;5188637;56;1143159;-69
2022/09/11 22:49:26;;;;;;;12.33;3.27;;;;;;;13.60;100.00;100692.34;5212510;56;1141064;-64
2022/09/11 22:54:32;;;;;;;4.17;3.20;;;;;;;13.47;100.00;100692.57;5194119;56;1143196;-64
2022/09/11 22:59:38;;;;;;;4.20;2.70;;;;;;;13.38;100.00;100698.70;5165467;57;1141137;-65
2022/09/11 23:07:13;;;;;;;15.03;4.77;;;;;;;13.26;100.00;100702.41;5165583;57;1141122;-69
2022/09/11 23:09:51;;;;;;;8.80;2.90;;;;;;;13.10;100.00;100706.83;5080065;58;1143089;-65
2022/09/11 23:14:57;;;;;;;4.57;3.10;;;;;;;12.98;100.00;100707.88;5080360;58;1141126;-68